Time;durP1;ratioP1;P1;durP2;ratioP2;P2;SDS_P1;SDS_P2;PMS_P1;PMS_P2;Temp;Humidity;BMP_temperature;BMP_pressure;BME280_temperature;BME280_humidity;BME280_pressure;Samples;Min_cycle;Max_cycle;Signal;HPM_P1;HPM_P2
2022/10/28 00:02:17;;;;;;;15.00;8.50;;;12.00;99.90;;;;;;4133112;28;20081;-84
2022/10/28 00:04:37;;;;;;;8.20;7.47;;;12.10;99.90;;;;;;4133816;28;20053;-84
2022/10/28 00:06:56;;;;;;;11.68;8.13;;;12.10;99.90;;;;;;4118885;28;20245;-84
2022/10/28 00:09:16;;;;;;;11.13;7.97;;;12.00;99.90;;;;;;4119029;28;20138;-84
2022/10/28 00:11:35;;;;;;;11.25;7.80;;;12.00;99.90;;;;;;4119184;28;20473;-84
2022/10/28 00:13:58;;;;;;;16.20;7.10;;;12.00;99.90;;;;;;4133233;28;20269;-84
2022/10/28 00:16:20;;;;;;;8.98;7.65;;;11.90;99.90;;;;;;4132953;28;20073;-84
2022/10/28 00:18:41;;;;;;;14.23;8.20;;;11.90;99.90;;;;;;4122025;28;20054;-85
2022/10/28 00:21:03;;;;;;;14.48;8.13;;;11.90;99.90;;;;;;4132799;28;20049;-84
2022/10/28 00:23:23;;;;;;;9.32;8.50;;;11.80;99.90;;;;;;4124982;28;20413;-84
2022/10/28 00:25:43;;;;;;;10.02;9.10;;;11.60;99.90;;;;;;4118074;28;20082;-84
2022/10/28 00:28:02;;;;;;;8.98;7.97;;;11.50;99.90;;;;;;4122758;28;20061;-85
2022/10/28 00:30:22;;;;;;;28.08;10.15;;;11.40;99.90;;;;;;4132642;28;20057;-84
2022/10/28 00:32:42;;;;;;;12.82;10.38;;;11.30;99.90;;;;;;4132884;28;20057;-84
2022/10/28 00:35:02;;;;;;;17.17;11.77;;;11.20;99.90;;;;;;4133613;28;20136;-84
2022/10/28 00:37:22;;;;;;;25.75;11.02;;;11.20;99.90;;;;;;4133068;28;20049;-84
2022/10/28 00:39:42;;;;;;;13.35;9.68;;;11.20;99.90;;;;;;4133091;28;20185;-84
2022/10/28 00:42:02;;;;;;;47.17;10.27;;;11.00;99.90;;;;;;4125189;28;20306;-85
2022/10/28 00:45:07;;;;;;;54.83;10.80;;;10.90;99.90;;;;;;4132496;28;20053;-84
2022/10/28 00:47:38;;;;;;;61.85;9.18;;;10.80;99.90;;;;;;4122903;28;20380;-84
2022/10/28 00:50:32;;;;;;;53.33;9.48;;;10.70;99.90;;;;;;4132468;28;20068;-84
2022/10/28 00:52:57;;;;;;;8.45;7.85;;;10.60;99.90;;;;;;4132448;28;20054;-84
2022/10/28 00:55:18;;;;;;;7.78;7.10;;;10.70;99.90;;;;;;4132351;28;20249;-85
2022/10/28 00:57:40;;;;;;;11.60;7.97;;;10.90;99.90;;;;;;4131321;28;20294;-84
2022/10/28 01:00:03;;;;;;;9.10;8.23;;;11.20;99.90;;;;;;4125454;28;20053;-84
2022/10/28 01:02:23;;;;;;;14.90;8.75;;;11.20;99.90;;;;;;4132333;28;20053;-84
2022/10/28 01:04:43;;;;;;;10.85;8.50;;;11.20;99.90;;;;;;4117586;28;20066;-84
2022/10/28 01:07:03;;;;;;;11.20;8.27;;;11.30;99.90;;;;;;4132165;28;20046;-84
2022/10/28 01:09:22;;;;;;;8.82;7.18;;;11.20;99.90;;;;;;4132141;28;20061;-84
2022/10/28 01:11:55;;;;;;;10.88;8.23;;;11.20;99.90;;;;;;4117550;28;20053;-84
2022/10/28 01:14:20;;;;;;;9.95;7.10;;;11.30;99.90;;;;;;4118208;28;20058;-85
2022/10/28 01:16:59;;;;;;;10.27;7.07;;;11.30;99.90;;;;;;4132109;28;20133;-84
2022/10/28 01:19:57;;;;;;;11.23;8.13;;;11.30;99.90;;;;;;4131613;28;20125;-84
2022/10/28 01:22:41;;;;;;;13.43;8.15;;;11.30;99.90;;;;;;4131084;28;20372;-84
2022/10/28 01:25:20;;;;;;;12.40;7.57;;;11.30;99.90;;;;;;4117397;28;20053;-84
2022/10/28 01:28:04;;;;;;;17.92;7.15;;;11.30;99.90;;;;;;4131922;28;20054;-84
2022/10/28 01:30:27;;;;;;;7.93;7.10;;;11.30;99.90;;;;;;4118197;28;20110;-84
2022/10/28 01:32:57;;;;;;;12.35;8.32;;;11.30;99.90;;;;;;4117399;28;20085;-84
2022/10/28 01:35:33;;;;;;;16.20;8.68;;;11.30;99.90;;;;;;4117328;28;20368;-84
2022/10/28 01:38:07;;;;;;;13.18;7.35;;;11.30;99.90;;;;;;4117237;28;20042;-84
2022/10/28 01:40:48;;;;;;;11.82;7.97;;;11.30;99.90;;;;;;4117283;28;20086;-84
2022/10/28 01:43:14;;;;;;;8.68;6.43;;;11.30;99.90;;;;;;4131668;28;20337;-84
2022/10/28 01:45:41;;;;;;;7.07;5.90;;;11.30;99.90;;;;;;4132021;28;20340;-84
2022/10/28 01:48:07;;;;;;;7.15;6.30;;;11.30;99.90;;;;;;4120863;28;20098;-84
2022/10/28 01:50:42;;;;;;;8.60;7.65;;;11.30;99.90;;;;;;4117162;28;20070;-84
2022/10/28 01:53:08;;;;;;;18.92;6.90;;;11.30;99.90;;;;;;4131827;28;20050;-84
2022/10/28 01:55:44;;;;;;;7.13;6.68;;;11.20;99.90;;;;;;4131603;28;20049;-84
2022/10/28 01:58:07;;;;;;;6.93;6.60;;;11.00;99.90;;;;;;4131446;28;20391;-84
2022/10/28 02:00:28;;;;;;;8.27;7.65;;;10.70;99.90;;;;;;4131521;28;20045;-84
2022/10/28 02:02:49;;;;;;;7.32;6.72;;;10.60;99.90;;;;;;4131601;28;20463;-84
2022/10/28 02:05:41;;;;;;;7.55;6.47;;;10.40;99.90;;;;;;4131514;28;20379;-84
2022/10/28 02:08:17;;;;;;;16.27;7.35;;;10.30;99.90;;;;;;4116868;28;20250;-84
2022/10/28 02:10:45;;;;;;;32.10;7.82;;;10.20;99.90;;;;;;4131028;28;20066;-84
2022/10/28 02:13:12;;;;;;;22.27;8.20;;;10.10;99.90;;;;;;4131502;28;20053;-84
2022/10/28 02:15:58;;;;;;;99.95;10.82;;;10.10;99.90;;;;;;4130945;28;20055;-84
2022/10/28 02:18:36;;;;;;;48.17;9.88;;;10.10;99.90;;;;;;4131846;28;20166;-84
2022/10/28 02:21:14;;;;;;;56.65;8.32;;;10.10;99.90;;;;;;4131350;28;20045;-84
2022/10/28 02:23:56;;;;;;;87.32;10.85;;;10.30;99.90;;;;;;4131261;28;20069;-84
2022/10/28 02:26:16;;;;;;;29.23;9.75;;;10.20;99.90;;;;;;4130268;28;20256;-84
2022/10/28 02:28:53;;;;;;;75.65;10.48;;;10.10;99.90;;;;;;4116667;28;20049;-84
2022/10/28 02:31:23;;;;;;;129.23;10.48;;;10.00;99.90;;;;;;4131671;28;20049;-84
2022/10/28 02:33:48;;;;;;;64.13;7.63;;;10.00;99.90;;;;;;4116622;28;20386;-84
2022/10/28 02:36:13;;;;;;;86.47;7.65;;;9.90;99.90;;;;;;4130318;28;20147;-83
2022/10/28 02:38:41;;;;;;;25.52;5.32;;;9.90;99.90;;;;;;4131360;28;20237;-83
2022/10/28 02:41:19;;;;;;;72.70;6.88;;;9.90;99.90;;;;;;4131210;28;20088;-84
2022/10/28 02:43:42;;;;;;;99.32;7.47;;;9.90;99.90;;;;;;4130508;28;20305;-84
2022/10/28 02:46:03;;;;;;;8.25;5.00;;;9.90;99.90;;;;;;4131424;28;20122;-84
2022/10/28 02:48:47;;;;;;;5.40;5.20;;;9.90;99.90;;;;;;4116418;28;20196;-84
2022/10/28 02:51:09;;;;;;;;;;;10.10;99.90;;;;;;4118038;28;20058;-84
2022/10/28 02:53:36;;;;;;;11.75;7.40;;;10.20;99.90;;;;;;4131087;28;19956;-84
2022/10/28 02:55:59;;;;;;;17.55;8.23;;;10.30;99.90;;;;;;4116508;28;20377;-84
2022/10/28 02:58:19;;;;;;;;;;;10.30;99.90;;;;;;4131373;28;20412;-84
2022/10/28 03:00:44;;;;;;;8.38;7.55;;;10.40;99.90;;;;;;4130023;28;19929;-84
2022/10/28 03:03:03;;;;;;;13.07;9.25;;;10.40;99.90;;;;;;4117108;28;20050;-84
2022/10/28 03:05:23;;;;;;;13.98;8.88;;;10.50;99.90;;;;;;4130285;28;20086;-84
2022/10/28 03:07:43;;;;;;;16.83;9.00;;;10.60;99.90;;;;;;4132055;28;20053;-84
2022/10/28 03:10:04;;;;;;;14.48;10.70;;;10.70;99.90;;;;;;4130949;28;20242;-84
2022/10/28 03:12:23;;;;;;;17.20;10.07;;;10.70;99.90;;;;;;4130874;28;20053;-84
2022/10/28 03:14:43;;;;;;;15.07;8.82;;;10.70;99.90;;;;;;4130865;28;20062;-84
2022/10/28 03:17:03;;;;;;;11.95;8.98;;;10.70;99.90;;;;;;4130822;28;20092;-84
2022/10/28 03:19:23;;;;;;;10.23;8.07;;;10.70;99.90;;;;;;4130840;28;20383;-84
2022/10/28 03:21:43;;;;;;;9.50;8.70;;;10.70;99.90;;;;;;4133278;28;20236;-84
2022/10/28 03:24:04;;;;;;;8.45;7.72;;;10.60;99.90;;;;;;4118955;28;20058;-84
2022/10/28 03:26:24;;;;;;;9.10;8.40;;;10.60;99.90;;;;;;4125684;28;20045;-84
2022/10/28 03:28:43;;;;;;;8.00;7.28;;;10.50;99.90;;;;;;4116958;28;20086;-84
2022/10/28 03:31:04;;;;;;;11.95;7.88;;;10.60;99.90;;;;;;4133497;28;20050;-84
2022/10/28 03:33:23;;;;;;;8.50;7.97;;;10.50;99.90;;;;;;4124022;28;20050;-83
2022/10/28 03:35:43;;;;;;;9.98;7.45;;;10.50;99.90;;;;;;4119800;28;20050;-83
2022/10/28 03:38:03;;;;;;;11.40;7.43;;;10.50;99.90;;;;;;4133901;28;20089;-84
2022/10/28 03:40:23;;;;;;;10.43;6.72;;;10.30;99.90;;;;;;4133900;28;20045;-84
2022/10/28 03:42:43;;;;;;;7.25;6.90;;;10.00;99.90;;;;;;4119723;28;20058;-83
2022/10/28 03:45:03;;;;;;;8.55;7.13;;;10.00;99.90;;;;;;4133367;28;20106;-84
2022/10/28 03:47:23;;;;;;;8.57;7.32;;;10.10;99.90;;;;;;4133250;28;20081;-84
2022/10/28 03:49:43;;;;;;;10.45;7.97;;;10.40;99.90;;;;;;4118577;28;20049;-84
2022/10/28 03:52:03;;;;;;;7.53;6.88;;;10.50;99.90;;;;;;4118804;28;20086;-84
2022/10/28 03:54:22;;;;;;;7.68;7.05;;;10.40;99.90;;;;;;4133118;28;20045;-84
2022/10/28 03:56:42;;;;;;;7.25;6.95;;;10.40;99.90;;;;;;4133209;28;20118;-84
2022/10/28 03:59:02;;;;;;;9.80;7.90;;;10.40;99.90;;;;;;4133191;28;20089;-84
2022/10/28 04:01:22;;;;;;;9.10;8.23;;;10.30;99.90;;;;;;4118589;28;20105;-84
2022/10/28 04:03:42;;;;;;;7.95;7.43;;;10.20;99.90;;;;;;4118480;28;20050;-84
2022/10/28 04:06:02;;;;;;;8.32;7.43;;;10.20;99.90;;;;;;4118465;28;20429;-84
2022/10/28 04:08:22;;;;;;;7.80;7.25;;;10.20;99.90;;;;;;4133007;28;20091;-84
2022/10/28 04:10:43;;;;;;;8.10;7.45;;;10.10;99.90;;;;;;4118398;28;20082;-84
2022/10/28 04:13:07;;;;;;;13.68;7.03;;;10.10;99.90;;;;;;4119575;28;20114;-84
2022/10/28 04:15:27;;;;;;;7.63;6.97;;;10.00;99.90;;;;;;4133120;28;20049;-83
2022/10/28 04:17:47;;;;;;;9.18;7.82;;;10.10;99.90;;;;;;4134082;28;20054;-83
2022/10/28 04:20:07;;;;;;;9.38;7.53;;;10.00;99.90;;;;;;4132858;28;20097;-83
2022/10/28 04:22:27;;;;;;;9.60;6.60;;;10.10;99.90;;;;;;4132802;28;20124;-83
2022/10/28 04:24:47;;;;;;;14.55;7.97;;;10.10;99.90;;;;;;4132744;28;20057;-83
2022/10/28 04:27:06;;;;;;;12.20;8.20;;;10.10;99.90;;;;;;4132808;28;20068;-83
2022/10/28 04:29:27;;;;;;;7.55;6.95;;;10.10;99.90;;;;;;4118324;28;20102;-83
2022/10/28 04:31:46;;;;;;;9.07;7.25;;;10.20;99.90;;;;;;4117654;28;20057;-83
2022/10/28 04:34:11;;;;;;;8.80;6.80;;;10.30;99.90;;;;;;4118973;28;20050;-84
2022/10/28 04:36:31;;;;;;;8.07;6.88;;;10.30;99.90;;;;;;4132828;28;20054;-84
2022/10/28 04:38:51;;;;;;;21.10;8.80;;;10.20;99.90;;;;;;4131840;28;20053;-83
2022/10/28 04:41:13;;;;;;;9.30;7.78;;;10.10;99.90;;;;;;4118863;28;20065;-83
2022/10/28 04:43:33;;;;;;;8.05;7.05;;;10.10;99.90;;;;;;4133315;28;20062;-84
2022/10/28 04:45:53;;;;;;;7.47;6.63;;;10.10;99.90;;;;;;4132705;28;20110;-83
2022/10/28 04:48:12;;;;;;;9.88;6.80;;;10.10;99.90;;;;;;4119089;28;20321;-84
2022/10/28 04:50:32;;;;;;;7.70;6.68;;;10.10;99.90;;;;;;4122022;28;20274;-83
2022/10/28 04:52:52;;;;;;;10.63;7.45;;;10.00;99.90;;;;;;4132440;28;20049;-83
2022/10/28 04:55:12;;;;;;;11.77;6.93;;;10.00;99.90;;;;;;4132539;28;20048;-83
2022/10/28 04:57:31;;;;;;;6.70;6.20;;;10.10;99.90;;;;;;4117872;28;20085;-83
2022/10/28 04:59:51;;;;;;;11.70;6.82;;;10.10;99.90;;;;;;4117760;28;20461;-83
2022/10/28 05:02:10;;;;;;;7.15;6.43;;;10.10;99.90;;;;;;4132436;28;20081;-83
2022/10/28 05:04:31;;;;;;;7.40;6.80;;;10.00;99.90;;;;;;4121547;28;20050;-83
2022/10/28 05:06:50;;;;;;;7.05;6.55;;;10.00;99.90;;;;;;4117707;28;20270;-84
2022/10/28 05:09:10;;;;;;;9.10;7.03;;;10.00;99.90;;;;;;4124237;28;20253;-83
2022/10/28 05:11:30;;;;;;;8.10;7.00;;;10.10;99.90;;;;;;4131342;28;20085;-83
2022/10/28 05:13:52;;;;;;;7.70;6.38;;;10.10;99.90;;;;;;4132369;28;20457;-83
2022/10/28 05:16:12;;;;;;;7.53;6.38;;;10.10;99.90;;;;;;4117876;28;20079;-84
2022/10/28 05:18:31;;;;;;;8.93;7.60;;;10.10;99.90;;;;;;4129707;28;20046;-85
2022/10/28 05:20:53;;;;;;;8.77;6.70;;;10.20;99.90;;;;;;4132782;28;20057;-85
2022/10/28 05:23:13;;;;;;;12.77;7.37;;;10.20;99.90;;;;;;4133360;28;20046;-85
2022/10/28 05:25:33;;;;;;;11.18;6.78;;;10.10;99.90;;;;;;4131105;28;20061;-85
2022/10/28 05:27:56;;;;;;;6.82;6.28;;;10.00;99.90;;;;;;4131955;28;20142;-85
2022/10/28 05:30:16;;;;;;;9.23;8.27;;;9.80;99.90;;;;;;4131101;28;20049;-85
2022/10/28 05:32:36;;;;;;;7.78;7.03;;;9.60;99.90;;;;;;4123285;28;20045;-85
2022/10/28 05:34:55;;;;;;;6.95;6.45;;;9.50;99.90;;;;;;4131950;28;20367;-85
2022/10/28 05:37:15;;;;;;;6.40;6.30;;;9.40;99.90;;;;;;4121361;28;20093;-85
2022/10/28 05:39:35;;;;;;;5.50;5.20;;;9.40;99.90;;;;;;4117371;28;20107;-85
2022/10/28 05:41:55;;;;;;;24.90;6.38;;;9.40;99.90;;;;;;4131843;28;20409;-85
2022/10/28 05:44:15;;;;;;;17.95;5.38;;;9.30;99.90;;;;;;4115907;28;20389;-85
2022/10/28 05:46:34;;;;;;;5.53;5.10;;;9.10;99.90;;;;;;4131792;28;20372;-85
2022/10/28 05:48:54;;;;;;;5.63;5.32;;;9.10;99.90;;;;;;4120925;28;20053;-85
2022/10/28 05:51:14;;;;;;;7.88;7.30;;;9.00;99.90;;;;;;4123599;28;20278;-85
2022/10/28 05:53:34;;;;;;;11.93;9.35;;;9.20;99.90;;;;;;4117942;28;20038;-85
2022/10/28 05:55:54;;;;;;;9.05;8.35;;;9.50;99.90;;;;;;4132452;28;20086;-85
2022/10/28 05:58:15;;;;;;;10.57;7.65;;;9.70;99.90;;;;;;4131933;28;20081;-83
2022/10/28 06:00:35;;;;;;;14.25;10.30;;;9.80;99.90;;;;;;4132900;28;20273;-83
2022/10/28 06:03:08;;;;;;;9.57;7.28;;;9.90;99.90;;;;;;4117199;28;20054;-83
2022/10/28 06:05:28;;;;;;;11.73;7.72;;;9.80;99.90;;;;;;4131603;28;20063;-83
2022/10/28 06:07:48;;;;;;;11.27;8.05;;;9.90;99.90;;;;;;4116833;28;20050;-83
2022/10/28 06:10:09;;;;;;;11.55;7.15;;;10.00;99.90;;;;;;4132558;28;20045;-83
2022/10/28 06:12:28;;;;;;;6.80;6.38;;;9.90;99.90;;;;;;4135177;28;20367;-83
2022/10/28 06:14:48;;;;;;;7.28;6.85;;;9.80;99.90;;;;;;4123852;28;20105;-83
2022/10/28 06:17:08;;;;;;;7.68;7.13;;;9.50;99.90;;;;;;4116711;28;20376;-83
2022/10/28 06:19:28;;;;;;;9.18;7.20;;;9.50;99.90;;;;;;4131661;28;20085;-83
2022/10/28 06:21:48;;;;;;;9.88;7.18;;;9.60;99.90;;;;;;4130366;28;20064;-83
2022/10/28 06:24:09;;;;;;;10.32;7.22;;;9.60;99.90;;;;;;4130057;28;20092;-83
2022/10/28 06:26:33;;;;;;;8.38;7.57;;;9.70;99.90;;;;;;4131186;28;20045;-83
2022/10/28 06:28:53;;;;;;;8.05;6.90;;;9.80;99.90;;;;;;4123303;28;20159;-83
2022/10/28 06:31:13;;;;;;;6.78;6.43;;;9.90;99.90;;;;;;4130804;28;20093;-83
2022/10/28 06:33:33;;;;;;;9.15;7.38;;;10.00;99.90;;;;;;4129444;28;20046;-83
2022/10/28 06:35:57;;;;;;;12.57;7.43;;;10.00;99.90;;;;;;4129980;28;20078;-83
2022/10/28 06:38:17;;;;;;;10.60;8.40;;;10.10;99.90;;;;;;4115968;28;20073;-83
2022/10/28 06:40:36;;;;;;;8.63;7.80;;;10.10;99.90;;;;;;4116012;28;20445;-83
2022/10/28 06:43:07;;;;;;;14.65;7.25;;;10.20;99.90;;;;;;4122310;28;20249;-83
2022/10/28 06:45:32;;;;;;;11.98;8.40;;;10.10;99.90;;;;;;4130986;28;20110;-83
2022/10/28 06:48:00;;;;;;;8.68;7.82;;;10.10;99.90;;;;;;4131636;28;20396;-83
2022/10/28 06:50:20;;;;;;;12.93;8.60;;;10.10;99.90;;;;;;4129595;28;20186;-83
2022/10/28 06:52:39;;;;;;;13.25;7.90;;;10.20;99.90;;;;;;4115119;28;20461;-84
2022/10/28 06:55:00;;;;;;;16.58;8.25;;;10.20;99.90;;;;;;4115138;28;20421;-84
2022/10/28 06:57:20;;;;;;;10.40;9.05;;;10.20;99.90;;;;;;4125070;28;20057;-84
2022/10/28 06:59:40;;;;;;;14.20;7.25;;;10.30;99.90;;;;;;4133643;28;20370;-84
2022/10/28 07:02:00;;;;;;;8.80;8.38;;;10.60;99.90;;;;;;4133807;28;20359;-83
2022/10/28 07:04:20;;;;;;;9.10;7.53;;;10.70;99.90;;;;;;4119056;28;20102;-84
2022/10/28 07:06:40;;;;;;;13.85;7.32;;;10.80;99.90;;;;;;4133639;28;20048;-84
2022/10/28 07:09:00;;;;;;;8.80;6.68;;;10.90;99.90;;;;;;4133675;28;20053;-84
2022/10/28 07:11:19;;;;;;;8.45;6.75;;;10.90;99.90;;;;;;4132729;28;20089;-82
2022/10/28 07:13:40;;;;;;;18.02;5.60;;;10.90;99.90;;;;;;4118088;28;20054;-82
2022/10/28 07:16:04;;;;;;;10.60;8.52;;;11.00;99.90;;;;;;4118137;28;20046;-82
2022/10/28 07:18:25;;;;;;;13.13;6.75;;;11.10;99.90;;;;;;4132123;28;20057;-82
2022/10/28 07:20:45;;;;;;;7.07;6.25;;;11.10;99.90;;;;;;4132171;28;20058;-82
2022/10/28 07:23:05;;;;;;;12.27;8.02;;;11.20;99.90;;;;;;4132159;28;20379;-82
2022/10/28 07:25:27;;;;;;;13.20;6.90;;;11.30;99.90;;;;;;4132300;28;20342;-82
2022/10/28 07:27:47;;;;;;;8.93;6.55;;;11.30;99.90;;;;;;4125080;28;20110;-82
2022/10/28 07:30:08;;;;;;;7.30;6.70;;;11.30;99.90;;;;;;4131804;28;20054;-82
2022/10/28 07:32:31;;;;;;;10.23;7.22;;;11.40;99.90;;;;;;4132702;28;20060;-82
2022/10/28 07:34:51;;;;;;;10.43;6.55;;;11.60;99.90;;;;;;4140007;28;20070;-82
2022/10/28 07:37:11;;;;;;;7.65;6.90;;;11.60;99.90;;;;;;4135923;28;20309;-82
2022/10/28 07:39:31;;;;;;;7.75;6.38;;;11.70;99.90;;;;;;4132596;28;20082;-82
2022/10/28 07:41:51;;;;;;;12.10;6.53;;;11.70;99.90;;;;;;4126127;28;20395;-82
2022/10/28 07:44:11;;;;;;;7.55;5.90;;;11.70;99.90;;;;;;4129568;28;20106;-82
2022/10/28 07:46:31;;;;;;;11.93;5.88;;;11.80;99.90;;;;;;4134199;28;20419;-82
2022/10/28 07:48:50;;;;;;;6.70;5.85;;;11.80;99.90;;;;;;4114811;28;20310;-82
2022/10/28 07:51:12;;;;;;;12.30;6.95;;;11.90;99.90;;;;;;4127652;28;20245;-82
2022/10/28 07:53:33;;;;;;;9.85;7.53;;;11.90;99.90;;;;;;4118193;28;20058;-82
2022/10/28 07:56:14;;;;;;;8.90;7.70;;;12.00;99.90;;;;;;4126616;28;20054;-82
2022/10/28 07:58:35;;;;;;;12.73;7.40;;;12.10;99.90;;;;;;4131730;28;20270;-82
2022/10/28 08:00:55;;;;;;;15.57;6.88;;;12.10;99.90;;;;;;4125911;28;20082;-82
2022/10/28 08:03:15;;;;;;;6.70;6.20;;;12.20;99.90;;;;;;4137493;28;20089;-82
2022/10/28 08:05:35;;;;;;;13.85;7.82;;;12.30;99.90;;;;;;4135658;28;20249;-82
2022/10/28 08:07:55;;;;;;;10.93;8.38;;;12.40;99.90;;;;;;4129583;28;20226;-83
2022/10/28 08:10:16;;;;;;;8.32;6.43;;;12.50;99.90;;;;;;4135454;28;20053;-83
2022/10/28 08:12:35;;;;;;;14.60;7.55;;;12.60;99.90;;;;;;4139636;28;20423;-83
2022/10/28 08:14:55;;;;;;;15.93;7.82;;;12.60;99.90;;;;;;4130127;28;20115;-83
2022/10/28 08:17:15;;;;;;;8.77;7.22;;;12.80;99.90;;;;;;4132976;28;20046;-83
2022/10/28 08:19:36;;;;;;;7.18;6.57;;;12.90;99.90;;;;;;4123318;28;20058;-83
2022/10/28 08:21:56;;;;;;;13.32;7.28;;;12.90;99.90;;;;;;4130075;28;20053;-83
2022/10/28 08:24:16;;;;;;;7.85;6.95;;;13.00;99.90;;;;;;4132592;28;20137;-83
2022/10/28 08:26:35;;;;;;;11.95;6.72;;;13.00;99.90;;;;;;4137608;28;20097;-83
2022/10/28 08:28:55;;;;;;;7.68;6.90;;;13.10;99.90;;;;;;4131208;28;20241;-83
2022/10/28 08:31:15;;;;;;;8.98;7.07;;;13.20;99.90;;;;;;4132335;28;20053;-83
2022/10/28 08:33:36;;;;;;;18.48;7.75;;;13.30;99.90;;;;;;4137109;28;20127;-83
2022/10/28 08:35:56;;;;;;;11.52;8.27;;;13.40;99.90;;;;;;4135148;28;20376;-83
2022/10/28 08:38:16;;;;;;;11.50;7.75;;;13.60;99.90;;;;;;4130134;28;20400;-83
2022/10/28 08:40:49;;;;;;;8.57;6.72;;;13.80;99.90;;;;;;4126127;28;20087;-83
2022/10/28 08:43:26;;;;;;;10.07;7.43;;;13.90;99.90;;;;;;4123676;28;20054;-83
2022/10/28 08:46:30;;;;;;;10.00;5.70;;;14.00;99.90;;;;;;4130846;28;20053;-83
2022/10/28 08:48:51;;;;;;;10.80;7.38;;;14.10;99.90;;;;;;4136524;28;20085;-83
2022/10/28 08:51:19;;;;;;;13.25;7.88;;;14.30;99.90;;;;;;4136459;28;20093;-83
2022/10/28 08:53:46;;;;;;;10.35;6.32;;;14.40;99.90;;;;;;4134793;28;20081;-83
2022/10/28 08:56:24;;;;;;;10.18;5.50;;;14.50;99.90;;;;;;4134350;28;20073;-84
2022/10/28 08:58:46;;;;;;;15.63;6.68;;;14.60;99.90;;;;;;4126620;28;20085;-83
2022/10/28 09:01:12;;;;;;;7.25;6.15;;;14.70;99.90;;;;;;4115937;28;20050;-83
2022/10/28 09:03:39;;;;;;;9.20;5.80;;;14.80;99.90;;;;;;4135481;28;20046;-83
2022/10/28 09:06:05;;;;;;;11.05;6.25;;;15.00;99.90;;;;;;4125944;28;20085;-83
2022/10/28 09:08:28;;;;;;;11.45;6.50;;;15.00;99.90;;;;;;4136735;28;20049;-83
2022/10/28 09:11:09;;;;;;;11.95;6.35;;;15.20;99.90;;;;;;4126180;28;20054;-83
2022/10/28 09:13:38;;;;;;;8.57;5.70;;;15.30;99.90;;;;;;4137880;28;20304;-83
2022/10/28 09:16:12;;;;;;;7.95;5.72;;;15.40;99.90;;;;;;4129167;28;20085;-83
2022/10/28 09:18:38;;;;;;;6.10;5.60;;;15.50;99.90;;;;;;4134091;28;20046;-83
2022/10/28 09:21:01;;;;;;;;;;;15.70;99.90;;;;;;4112968;28;20050;-83
2022/10/28 09:23:39;;;;;;;8.40;6.25;;;15.70;99.90;;;;;;4137178;28;20166;-83
2022/10/28 09:26:32;;;;;;;6.28;5.10;;;15.90;99.90;;;;;;4132892;28;20142;-84
2022/10/28 09:29:16;;;;;;;8.98;5.53;;;16.00;99.90;;;;;;4126241;28;20114;-84
2022/10/28 09:31:53;;;;;;;13.02;6.15;;;16.30;99.90;;;;;;4115325;28;20078;-84
2022/10/28 09:34:37;;;;;;;12.85;6.63;;;16.40;99.90;;;;;;4130088;28;20085;-84
2022/10/28 09:37:21;;;;;;;5.22;4.80;;;16.60;99.90;;;;;;4123000;28;20054;-84
2022/10/28 09:39:45;;;;;;;8.68;5.60;;;16.80;99.90;;;;;;4119865;28;20053;-84
2022/10/28 09:42:05;;;;;;;13.93;5.63;;;17.00;99.90;;;;;;4115241;28;20058;-84
2022/10/28 09:44:31;;;;;;;11.88;4.75;;;17.30;99.90;;;;;;4110213;28;20058;-84
2022/10/28 09:46:55;;;;;;;11.88;4.68;;;17.50;99.90;;;;;;4124777;28;20050;-84
2022/10/28 09:49:21;;;;;;;7.75;4.43;;;17.70;99.90;;;;;;4134080;28;20388;-84
2022/10/28 09:51:56;;;;;;;12.73;4.43;;;17.80;99.90;;;;;;4125015;28;20077;-84
2022/10/28 09:54:18;;;;;;;7.50;3.17;;;18.10;99.90;;;;;;4119092;28;20380;-84
2022/10/28 09:56:38;;;;;;;10.48;4.45;;;18.30;99.90;;;;;;4131622;28;20241;-84
2022/10/28 09:59:01;;;;;;;6.13;3.28;;;18.60;99.90;;;;;;4126543;28;20078;-84
2022/10/28 10:01:21;;;;;;;;;;;19.10;99.90;;;;;;4129070;28;20375;-85
2022/10/28 10:03:42;;;;;;;8.98;3.90;;;19.10;99.90;;;;;;4119019;28;19925;-85
2022/10/28 10:06:30;;;;;;;12.88;4.47;;;19.00;99.90;;;;;;4126057;28;20054;-84
2022/10/28 10:08:50;;;;;;;7.93;2.75;;;19.10;99.90;;;;;;4112796;28;20290;-84
2022/10/28 10:11:23;;;;;;;9.60;3.83;;;19.10;99.90;;;;;;4131404;28;20046;-85
2022/10/28 10:13:44;;;;;;;10.30;3.63;;;19.30;99.90;;;;;;4112352;28;20421;-85
2022/10/28 10:16:30;;;;;;;11.70;4.07;;;19.60;99.90;;;;;;4112302;28;20073;-85
2022/10/28 10:18:56;;;;;;;6.85;2.15;;;19.80;99.90;;;;;;4128959;28;20129;-84
2022/10/28 10:21:19;;;;;;;6.60;2.88;;;19.90;99.90;;;;;;4114700;28;20117;-85
2022/10/28 10:23:38;;;;;;;5.18;2.40;;;20.00;99.90;;;;;;4120162;28;20057;-85
2022/10/28 10:26:06;;;;;;;10.30;3.67;;;20.10;99.90;;;;;;4132994;28;20049;-85
2022/10/28 10:28:35;;;;;;;8.10;4.70;;;20.60;99.90;;;;;;4123404;28;20049;-85
2022/10/28 10:30:58;;;;;;;10.48;2.83;;;20.60;99.90;;;;;;4113847;28;20054;-85
2022/10/28 10:33:24;;;;;;;16.67;3.28;;;20.70;99.90;;;;;;4130717;28;20333;-85
2022/10/28 10:35:54;;;;;;;10.90;3.55;;;20.70;99.90;;;;;;4120246;28;20085;-85
2022/10/28 10:38:19;;;;;;;4.15;2.45;;;20.90;99.90;;;;;;4125448;28;20066;-84
2022/10/28 10:40:52;;;;;;;6.75;2.63;;;20.90;99.90;;;;;;4123749;28;20050;-84
2022/10/28 10:43:21;;;;;;;;;;;21.10;99.90;;;;;;4136475;28;20069;-84
2022/10/28 10:45:47;;;;;;;8.43;3.35;;;21.20;99.90;;;;;;4133124;28;20219;-85
2022/10/28 10:48:13;;;;;;;11.85;3.45;;;21.40;99.90;;;;;;4133973;28;20045;-84
2022/10/28 10:50:33;;;;;;;10.45;2.95;;;21.50;99.90;;;;;;4129419;28;20274;-84
2022/10/28 10:52:56;;;;;;;8.60;4.13;;;21.60;99.90;;;;;;4125282;28;20050;-85
2022/10/28 10:55:38;;;;;;;9.38;3.45;;;21.60;99.90;;;;;;4129487;28;20322;-85
2022/10/28 10:57:59;;;;;;;11.13;2.92;;;22.00;99.90;;;;;;4120362;28;20089;-85
2022/10/28 11:00:22;;;;;;;7.45;3.00;;;22.10;99.90;;;;;;4133482;28;20105;-85
2022/10/28 11:02:46;;;;;;;11.32;4.20;;;22.30;99.90;;;;;;4113836;28;20093;-85
2022/10/28 11:05:09;;;;;;;8.57;2.65;;;22.30;99.90;;;;;;4129426;28;20045;-84
2022/10/28 11:07:30;;;;;;;;;;;22.60;99.90;;;;;;4137908;28;20053;-85
2022/10/28 11:09:51;;;;;;;9.93;3.03;;;22.90;99.90;;;;;;4136306;28;19932;-85
2022/10/28 11:12:30;;;;;;;4.82;2.70;;;23.20;99.90;;;;;;4130216;28;20093;-85
2022/10/28 11:14:58;;;;;;;7.25;2.67;;;23.60;99.90;;;;;;4132302;28;20066;-85
2022/10/28 11:17:25;;;;;;;6.07;1.88;;;23.90;99.90;;;;;;4121510;28;20054;-85
2022/10/28 11:19:45;;;;;;;9.43;3.20;;;24.20;99.90;;;;;;4124153;28;20050;-85
2022/10/28 11:22:30;;;;;;;11.98;2.28;;;24.30;99.90;;;;;;4122970;28;20050;-85
2022/10/28 11:25:26;;;;;;;6.90;1.55;;;24.50;99.90;;;;;;4112390;28;20143;-85
2022/10/28 11:28:02;;;;;;;9.63;2.60;;;24.60;99.90;;;;;;4132667;28;20053;-85
2022/10/28 11:31:09;;;;;;;7.22;2.33;;;24.80;99.90;;;;;;4110837;28;20082;-85
2022/10/28 11:33:44;;;;;;;7.78;2.13;;;24.70;99.90;;;;;;4124597;28;20106;-85
2022/10/28 11:36:30;;;;;;;8.95;1.60;;;24.00;99.90;;;;;;4113952;28;20050;-85
2022/10/28 11:39:22;;;;;;;5.35;2.33;;;24.50;99.90;;;;;;4103915;28;20098;-85
2022/10/28 11:42:03;;;;;;;5.72;1.90;;;25.00;99.90;;;;;;4132328;28;20050;-85
2022/10/28 11:44:55;;;;;;;8.80;1.73;;;25.50;99.90;;;;;;4115363;28;20054;-85
2022/10/28 11:47:39;;;;;;;3.47;1.30;;;25.50;99.90;;;;;;4114117;28;20287;-85
2022/10/28 11:50:20;;;;;;;7.20;1.00;;;25.70;99.90;;;;;;4134645;28;20121;-85
2022/10/28 11:52:59;;;;;;;6.72;1.48;;;25.80;99.90;;;;;;4131421;28;20273;-85
2022/10/28 11:55:45;;;;;;;4.28;1.15;;;25.40;99.90;;;;;;4129257;28;20126;-85
2022/10/28 11:58:23;;;;;;;7.43;1.42;;;25.30;99.90;;;;;;4120193;28;20299;-85
2022/10/28 12:01:15;;;;;;;3.33;0.90;;;25.50;99.90;;;;;;4140924;28;20052;-85
2022/10/28 12:03:38;;;;;;;7.93;1.63;;;25.40;99.90;;;;;;4129882;28;20093;-86
2022/10/28 12:06:21;;;;;;;5.50;1.10;;;25.60;99.90;;;;;;4121681;28;20087;-86
2022/10/28 12:08:57;;;;;;;4.82;1.52;;;25.70;99.90;;;;;;4112370;28;20078;-85
2022/10/28 12:11:48;;;;;;;6.22;1.48;;;25.70;99.90;;;;;;4116405;28;20405;-86
2022/10/28 12:14:09;;;;;;;4.60;1.00;;;25.90;99.90;;;;;;4137442;28;20101;-86
2022/10/28 12:16:43;;;;;;;3.22;1.10;;;25.80;99.90;;;;;;4121467;28;20053;-86
2022/10/28 12:19:28;;;;;;;4.50;1.00;;;25.70;99.90;;;;;;4116994;28;20102;-86
2022/10/28 12:22:08;;;;;;;7.68;1.58;;;25.90;99.90;;;;;;4136580;28;20101;-86
2022/10/28 12:24:32;;;;;;;3.25;1.02;;;26.10;99.90;;;;;;4127248;28;20045;-86
2022/10/28 12:26:56;;;;;;;6.90;1.80;;;26.00;99.90;;;;;;4122186;28;20103;-86
2022/10/28 12:29:36;;;;;;;7.80;1.30;;;26.20;99.90;;;;;;4131232;28;20045;-86
2022/10/28 12:32:10;;;;;;;4.45;1.38;;;26.30;99.90;;;;;;4125794;28;20372;-85
2022/10/28 12:34:38;;;;;;;1.77;1.00;;;26.50;99.90;;;;;;4134505;28;20085;-86
2022/10/28 12:37:08;;;;;;;3.80;1.63;;;26.40;99.90;;;;;;4130068;28;20046;-85
2022/10/28 12:39:38;;;;;;;9.50;1.60;;;26.00;99.90;;;;;;4133430;28;20089;-86